sensor_id;sensor_type;location;lat;lon;timestamp;temperature;humidity
38592;DHT22;24356;48.460;11.450;2023-03-01T00:01:04;0.50;81.00
38592;DHT22;24356;48.460;11.450;2023-03-01T00:03:30;0.50;81.00
38592;DHT22;24356;48.460;11.450;2023-03-01T00:05:56;0.50;81.10
38592;DHT22;24356;48.460;11.450;2023-03-01T00:08:21;0.50;81.00
38592;DHT22;24356;48.460;11.450;2023-03-01T00:10:47;0.50;81.10
38592;DHT22;24356;48.460;11.450;2023-03-01T00:13:12;0.50;81.10
38592;DHT22;24356;48.460;11.450;2023-03-01T00:15:39;0.50;81.10
38592;DHT22;24356;48.460;11.450;2023-03-01T00:18:05;0.50;81.30
38592;DHT22;24356;48.460;11.450;2023-03-01T00:20:31;0.50;81.30
38592;DHT22;24356;48.460;11.450;2023-03-01T00:22:57;0.50;81.30
38592;DHT22;24356;48.460;11.450;2023-03-01T00:25:22;0.50;81.20
38592;DHT22;24356;48.460;11.450;2023-03-01T00:27:48;0.50;81.20
38592;DHT22;24356;48.460;11.450;2023-03-01T00:30:16;0.50;81.20
38592;DHT22;24356;48.460;11.450;2023-03-01T00:32:41;0.50;81.20
38592;DHT22;24356;48.460;11.450;2023-03-01T00:35:09;0.50;81.40
38592;DHT22;24356;48.460;11.450;2023-03-01T00:37:35;0.50;81.40
38592;DHT22;24356;48.460;11.450;2023-03-01T00:40:00;0.50;81.30
38592;DHT22;24356;48.460;11.450;2023-03-01T00:42:26;0.50;81.30
38592;DHT22;24356;48.460;11.450;2023-03-01T00:44:51;0.50;81.20
38592;DHT22;24356;48.460;11.450;2023-03-01T00:47:17;0.50;81.30
38592;DHT22;24356;48.460;11.450;2023-03-01T00:49:43;0.50;81.30
38592;DHT22;24356;48.460;11.450;2023-03-01T00:52:08;0.40;81.50
38592;DHT22;24356;48.460;11.450;2023-03-01T00:54:34;0.50;81.40
38592;DHT22;24356;48.460;11.450;2023-03-01T00:56:59;0.50;81.40
38592;DHT22;24356;48.460;11.450;2023-03-01T00:59:25;0.40;81.30
38592;DHT22;24356;48.460;11.450;2023-03-01T01:01:50;0.40;81.50
38592;DHT22;24356;48.460;11.450;2023-03-01T01:04:16;0.40;81.50
38592;DHT22;24356;48.460;11.450;2023-03-01T01:06:44;0.40;81.50
38592;DHT22;24356;48.460;11.450;2023-03-01T01:09:12;0.40;81.40
38592;DHT22;24356;48.460;11.450;2023-03-01T01:11:49;0.40;81.30
38592;DHT22;24356;48.460;11.450;2023-03-01T01:14:16;0.40;81.60
38592;DHT22;24356;48.460;11.450;2023-03-01T01:16:41;0.40;81.40
38592;DHT22;24356;48.460;11.450;2023-03-01T01:19:07;0.40;81.40
38592;DHT22;24356;48.460;11.450;2023-03-01T01:21:34;0.40;81.40
38592;DHT22;24356;48.460;11.450;2023-03-01T01:23:59;0.40;81.30
38592;DHT22;24356;48.460;11.450;2023-03-01T01:26:28;0.40;81.60
38592;DHT22;24356;48.460;11.450;2023-03-01T01:28:54;0.30;81.70
38592;DHT22;24356;48.460;11.450;2023-03-01T01:31:20;0.30;81.70
38592;DHT22;24356;48.460;11.450;2023-03-01T01:33:49;0.30;81.50
38592;DHT22;24356;48.460;11.450;2023-03-01T01:36:14;0.30;81.70
38592;DHT22;24356;48.460;11.450;2023-03-01T01:38:40;0.30;81.60
38592;DHT22;24356;48.460;11.450;2023-03-01T01:41:08;0.40;81.50
38592;DHT22;24356;48.460;11.450;2023-03-01T01:43:39;0.40;81.40
38592;DHT22;24356;48.460;11.450;2023-03-01T01:46:17;0.40;81.40
38592;DHT22;24356;48.460;11.450;2023-03-01T01:48:50;0.40;81.70
38592;DHT22;24356;48.460;11.450;2023-03-01T01:51:21;0.30;81.70
38592;DHT22;24356;48.460;11.450;2023-03-01T01:53:53;0.30;81.60
38592;DHT22;24356;48.460;11.450;2023-03-01T01:56:20;0.40;81.50
38592;DHT22;24356;48.460;11.450;2023-03-01T01:58:47;0.30;81.60
38592;DHT22;24356;48.460;11.450;2023-03-01T02:01:13;0.30;81.80
38592;DHT22;24356;48.460;11.450;2023-03-01T02:03:40;0.30;81.60
38592;DHT22;24356;48.460;11.450;2023-03-01T02:08:57;0.30;81.70
38592;DHT22;24356;48.460;11.450;2023-03-01T02:11:23;0.40;81.50
38592;DHT22;24356;48.460;11.450;2023-03-01T02:13:49;0.40;81.50
38592;DHT22;24356;48.460;11.450;2023-03-01T02:16:16;0.40;81.80
38592;DHT22;24356;48.460;11.450;2023-03-01T02:18:42;0.40;81.60
38592;DHT22;24356;48.460;11.450;2023-03-01T02:23:53;0.30;81.80
38592;DHT22;24356;48.460;11.450;2023-03-01T02:26:34;0.30;81.80
38592;DHT22;24356;48.460;11.450;2023-03-01T02:29:02;0.30;81.90
38592;DHT22;24356;48.460;11.450;2023-03-01T02:31:28;0.30;81.80
38592;DHT22;24356;48.460;11.450;2023-03-01T02:36:41;0.30;81.90
38592;DHT22;24356;48.460;11.450;2023-03-01T02:39:16;0.30;82.00
38592;DHT22;24356;48.460;11.450;2023-03-01T02:41:48;0.30;81.90
38592;DHT22;24356;48.460;11.450;2023-03-01T02:44:15;0.30;82.20
38592;DHT22;24356;48.460;11.450;2023-03-01T02:47:01;0.30;82.10
38592;DHT22;24356;48.460;11.450;2023-03-01T02:49:30;0.30;81.90
38592;DHT22;24356;48.460;11.450;2023-03-01T02:55:07;0.20;82.00
38592;DHT22;24356;48.460;11.450;2023-03-01T02:57:35;0.20;81.70
38592;DHT22;24356;48.460;11.450;2023-03-01T03:00:11;0.20;81.80
38592;DHT22;24356;48.460;11.450;2023-03-01T03:02:48;0.20;81.80
38592;DHT22;24356;48.460;11.450;2023-03-01T03:05:17;0.20;82.00
38592;DHT22;24356;48.460;11.450;2023-03-01T03:07:45;0.20;81.90
38592;DHT22;24356;48.460;11.450;2023-03-01T03:10:17;0.20;81.80
38592;DHT22;24356;48.460;11.450;2023-03-01T03:12:48;0.20;82.10
38592;DHT22;24356;48.460;11.450;2023-03-01T03:15:14;0.20;82.20
38592;DHT22;24356;48.460;11.450;2023-03-01T03:17:41;0.10;82.10
38592;DHT22;24356;48.460;11.450;2023-03-01T03:20:08;0.10;82.30
38592;DHT22;24356;48.460;11.450;2023-03-01T03:22:38;0.10;82.00
38592;DHT22;24356;48.460;11.450;2023-03-01T03:25:05;0.10;81.90
38592;DHT22;24356;48.460;11.450;2023-03-01T03:27:30;0.10;82.10
38592;DHT22;24356;48.460;11.450;2023-03-01T03:29:57;0.10;82.00
38592;DHT22;24356;48.460;11.450;2023-03-01T03:32:22;0.10;82.00
38592;DHT22;24356;48.460;11.450;2023-03-01T03:34:48;0.00;82.00
38592;DHT22;24356;48.460;11.450;2023-03-01T03:37:14;0.00;82.20
38592;DHT22;24356;48.460;11.450;2023-03-01T03:40:00;0.00;82.10
38592;DHT22;24356;48.460;11.450;2023-03-01T03:42:25;-0.10;82.30
38592;DHT22;24356;48.460;11.450;2023-03-01T03:44:51;-0.10;82.40
38592;DHT22;24356;48.460;11.450;2023-03-01T03:47:16;-0.20;82.30
38592;DHT22;24356;48.460;11.450;2023-03-01T03:49:42;-0.20;82.30
38592;DHT22;24356;48.460;11.450;2023-03-01T03:52:08;-0.20;82.30
38592;DHT22;24356;48.460;11.450;2023-03-01T03:54:39;-0.30;82.30
38592;DHT22;24356;48.460;11.450;2023-03-01T03:57:06;-0.40;82.20
38592;DHT22;24356;48.460;11.450;2023-03-01T03:59:31;-0.40;82.30
38592;DHT22;24356;48.460;11.450;2023-03-01T04:01:57;-0.40;82.20
38592;DHT22;24356;48.460;11.450;2023-03-01T04:04:22;-0.50;82.20
38592;DHT22;24356;48.460;11.450;2023-03-01T04:06:48;-0.60;82.20
38592;DHT22;24356;48.460;11.450;2023-03-01T04:09:13;-0.60;82.20
38592;DHT22;24356;48.460;11.450;2023-03-01T04:11:39;-0.60;82.20
38592;DHT22;24356;48.460;11.450;2023-03-01T04:14:05;-0.70;82.10
38592;DHT22;24356;48.460;11.450;2023-03-01T04:16:30;-0.70;82.20
38592;DHT22;24356;48.460;11.450;2023-03-01T04:18:56;-0.80;82.30
38592;DHT22;24356;48.460;11.450;2023-03-01T04:21:24;-0.80;82.30
38592;DHT22;24356;48.460;11.450;2023-03-01T04:23:50;-0.80;82.20
38592;DHT22;24356;48.460;11.450;2023-03-01T04:26:18;-0.80;82.20
38592;DHT22;24356;48.460;11.450;2023-03-01T04:28:44;-0.90;82.20
38592;DHT22;24356;48.460;11.450;2023-03-01T04:31:16;-0.90;82.20
38592;DHT22;24356;48.460;11.450;2023-03-01T04:33:46;-1.00;82.30
38592;DHT22;24356;48.460;11.450;2023-03-01T04:36:13;-1.00;82.20
38592;DHT22;24356;48.460;11.450;2023-03-01T04:38:40;-1.00;82.20
38592;DHT22;24356;48.460;11.450;2023-03-01T04:41:07;-1.00;82.20
38592;DHT22;24356;48.460;11.450;2023-03-01T04:43:33;-1.10;82.20
38592;DHT22;24356;48.460;11.450;2023-03-01T04:46:07;-1.10;82.30
38592;DHT22;24356;48.460;11.450;2023-03-01T04:48:36;-1.10;82.20
38592;DHT22;24356;48.460;11.450;2023-03-01T04:51:02;-1.20;82.20
38592;DHT22;24356;48.460;11.450;2023-03-01T04:53:28;-1.20;82.20
38592;DHT22;24356;48.460;11.450;2023-03-01T04:55:55;-1.20;82.20
38592;DHT22;24356;48.460;11.450;2023-03-01T04:58:25;-1.20;82.40
38592;DHT22;24356;48.460;11.450;2023-03-01T05:00:52;-1.30;82.20
38592;DHT22;24356;48.460;11.450;2023-03-01T05:03:18;-1.30;82.20
38592;DHT22;24356;48.460;11.450;2023-03-01T05:05:46;-1.30;82.20
38592;DHT22;24356;48.460;11.450;2023-03-01T05:08:13;-1.40;82.40
38592;DHT22;24356;48.460;11.450;2023-03-01T05:10:49;-1.40;82.20
38592;DHT22;24356;48.460;11.450;2023-03-01T05:13:16;-1.40;82.30
38592;DHT22;24356;48.460;11.450;2023-03-01T05:15:47;-1.40;82.30
38592;DHT22;24356;48.460;11.450;2023-03-01T05:18:14;-1.50;82.30
38592;DHT22;24356;48.460;11.450;2023-03-01T05:20:39;-1.50;82.30
38592;DHT22;24356;48.460;11.450;2023-03-01T05:23:05;-1.50;82.30
38592;DHT22;24356;48.460;11.450;2023-03-01T05:25:32;-1.50;82.30
38592;DHT22;24356;48.460;11.450;2023-03-01T05:28:02;-1.60;82.40
38592;DHT22;24356;48.460;11.450;2023-03-01T05:30:31;-1.60;82.40
38592;DHT22;24356;48.460;11.450;2023-03-01T05:32:56;-1.60;82.40
38592;DHT22;24356;48.460;11.450;2023-03-01T05:35:22;-1.60;82.40
38592;DHT22;24356;48.460;11.450;2023-03-01T05:37:49;-1.60;82.40
38592;DHT22;24356;48.460;11.450;2023-03-01T05:40:18;-1.60;82.40
38592;DHT22;24356;48.460;11.450;2023-03-01T05:42:46;-1.70;82.30
38592;DHT22;24356;48.460;11.450;2023-03-01T05:45:12;-1.70;82.40
38592;DHT22;24356;48.460;11.450;2023-03-01T05:47:40;-1.70;82.40
38592;DHT22;24356;48.460;11.450;2023-03-01T05:50:20;-1.70;82.50
38592;DHT22;24356;48.460;11.450;2023-03-01T05:53:00;-1.70;82.40
38592;DHT22;24356;48.460;11.450;2023-03-01T05:55:27;-1.80;82.30
38592;DHT22;24356;48.460;11.450;2023-03-01T05:57:53;-1.80;82.30
38592;DHT22;24356;48.460;11.450;2023-03-01T06:00:20;-1.80;82.30
38592;DHT22;24356;48.460;11.450;2023-03-01T06:02:48;-1.80;82.50
38592;DHT22;24356;48.460;11.450;2023-03-01T06:05:14;-1.80;82.40
38592;DHT22;24356;48.460;11.450;2023-03-01T06:07:41;-1.90;82.50
38592;DHT22;24356;48.460;11.450;2023-03-01T06:10:08;-1.80;82.60
38592;DHT22;24356;48.460;11.450;2023-03-01T06:12:35;-1.90;82.50
38592;DHT22;24356;48.460;11.450;2023-03-01T06:15:01;-1.90;82.50
38592;DHT22;24356;48.460;11.450;2023-03-01T06:17:32;-1.90;82.40
38592;DHT22;24356;48.460;11.450;2023-03-01T06:19:58;-1.90;82.50
38592;DHT22;24356;48.460;11.450;2023-03-01T06:22:24;-1.90;82.50
38592;DHT22;24356;48.460;11.450;2023-03-01T06:24:49;-1.90;82.60
38592;DHT22;24356;48.460;11.450;2023-03-01T06:27:15;-1.90;82.50
38592;DHT22;24356;48.460;11.450;2023-03-01T06:29:41;-1.90;82.50
38592;DHT22;24356;48.460;11.450;2023-03-01T06:32:07;-1.90;82.40
38592;DHT22;24356;48.460;11.450;2023-03-01T06:34:33;-1.90;82.50
38592;DHT22;24356;48.460;11.450;2023-03-01T06:36:59;-1.90;82.50
38592;DHT22;24356;48.460;11.450;2023-03-01T06:39:24;-1.90;82.70
38592;DHT22;24356;48.460;11.450;2023-03-01T06:41:50;-1.90;82.50
38592;DHT22;24356;48.460;11.450;2023-03-01T06:44:15;-1.80;82.40
38592;DHT22;24356;48.460;11.450;2023-03-01T06:46:41;-1.70;82.20
38592;DHT22;24356;48.460;11.450;2023-03-01T06:49:07;-1.60;82.00
38592;DHT22;24356;48.460;11.450;2023-03-01T06:51:37;-1.50;81.80
38592;DHT22;24356;48.460;11.450;2023-03-01T06:54:04;-1.40;81.40
38592;DHT22;24356;48.460;11.450;2023-03-01T06:56:31;-1.30;81.40
38592;DHT22;24356;48.460;11.450;2023-03-01T06:58:57;-1.20;81.40
38592;DHT22;24356;48.460;11.450;2023-03-01T07:01:22;-1.10;81.50
38592;DHT22;24356;48.460;11.450;2023-03-01T07:03:48;-0.90;81.50
38592;DHT22;24356;48.460;11.450;2023-03-01T07:06:13;-0.70;81.30
38592;DHT22;24356;48.460;11.450;2023-03-01T07:08:39;-0.60;81.00
38592;DHT22;24356;48.460;11.450;2023-03-01T07:11:04;-0.40;80.80
38592;DHT22;24356;48.460;11.450;2023-03-01T07:13:31;-0.20;80.90
38592;DHT22;24356;48.460;11.450;2023-03-01T07:15:56;-0.10;80.50
38592;DHT22;24356;48.460;11.450;2023-03-01T07:18:22;0.10;80.40
38592;DHT22;24356;48.460;11.450;2023-03-01T07:20:48;0.20;80.30
38592;DHT22;24356;48.460;11.450;2023-03-01T07:23:13;0.40;80.20
38592;DHT22;24356;48.460;11.450;2023-03-01T07:25:39;0.50;80.10
38592;DHT22;24356;48.460;11.450;2023-03-01T07:28:04;0.60;79.90
38592;DHT22;24356;48.460;11.450;2023-03-01T07:30:30;0.80;80.00
38592;DHT22;24356;48.460;11.450;2023-03-01T07:32:57;1.00;79.80
38592;DHT22;24356;48.460;11.450;2023-03-01T07:35:24;1.10;79.40
38592;DHT22;24356;48.460;11.450;2023-03-01T07:37:50;1.20;79.40
38592;DHT22;24356;48.460;11.450;2023-03-01T07:40:16;1.40;79.30
38592;DHT22;24356;48.460;11.450;2023-03-01T07:42:41;1.60;79.10
38592;DHT22;24356;48.460;11.450;2023-03-01T07:45:07;1.70;78.60
38592;DHT22;24356;48.460;11.450;2023-03-01T07:47:33;1.80;78.40
38592;DHT22;24356;48.460;11.450;2023-03-01T07:49:58;2.00;78.20
38592;DHT22;24356;48.460;11.450;2023-03-01T07:52:24;2.00;77.80
38592;DHT22;24356;48.460;11.450;2023-03-01T07:54:50;2.10;77.80
38592;DHT22;24356;48.460;11.450;2023-03-01T07:57:15;2.30;77.70
38592;DHT22;24356;48.460;11.450;2023-03-01T07:59:41;2.40;77.30
38592;DHT22;24356;48.460;11.450;2023-03-01T08:02:07;2.50;77.20
38592;DHT22;24356;48.460;11.450;2023-03-01T08:04:33;2.70;77.00
38592;DHT22;24356;48.460;11.450;2023-03-01T08:06:59;2.80;76.80
38592;DHT22;24356;48.460;11.450;2023-03-01T08:09:24;3.00;76.70
38592;DHT22;24356;48.460;11.450;2023-03-01T08:11:50;3.10;76.10
38592;DHT22;24356;48.460;11.450;2023-03-01T08:14:15;3.30;75.50
38592;DHT22;24356;48.460;11.450;2023-03-01T08:16:41;3.50;75.40
38592;DHT22;24356;48.460;11.450;2023-03-01T08:19:09;3.70;75.70
38592;DHT22;24356;48.460;11.450;2023-03-01T08:21:35;4.00;74.80
38592;DHT22;24356;48.460;11.450;2023-03-01T08:24:05;4.10;74.20
38592;DHT22;24356;48.460;11.450;2023-03-01T08:26:32;4.30;74.60
38592;DHT22;24356;48.460;11.450;2023-03-01T08:28:58;4.50;74.90
38592;DHT22;24356;48.460;11.450;2023-03-01T08:31:27;4.80;74.30
38592;DHT22;24356;48.460;11.450;2023-03-01T08:33:56;4.90;74.50
38592;DHT22;24356;48.460;11.450;2023-03-01T08:36:28;5.10;74.20
38592;DHT22;24356;48.460;11.450;2023-03-01T08:38:55;5.30;74.00
38592;DHT22;24356;48.460;11.450;2023-03-01T08:41:20;5.50;73.70
38592;DHT22;24356;48.460;11.450;2023-03-01T08:43:46;5.70;73.70
38592;DHT22;24356;48.460;11.450;2023-03-01T08:46:12;6.00;73.70
38592;DHT22;24356;48.460;11.450;2023-03-01T08:48:38;6.20;73.20
38592;DHT22;24356;48.460;11.450;2023-03-01T08:51:16;6.40;73.40
38592;DHT22;24356;48.460;11.450;2023-03-01T08:53:42;6.60;73.50
38592;DHT22;24356;48.460;11.450;2023-03-01T08:56:08;6.80;72.90
38592;DHT22;24356;48.460;11.450;2023-03-01T08:58:34;7.00;72.60
38592;DHT22;24356;48.460;11.450;2023-03-01T09:01:00;7.20;72.80
38592;DHT22;24356;48.460;11.450;2023-03-01T09:03:27;7.30;72.40
38592;DHT22;24356;48.460;11.450;2023-03-01T09:05:53;7.40;72.00
38592;DHT22;24356;48.460;11.450;2023-03-01T09:08:19;7.60;72.40
38592;DHT22;24356;48.460;11.450;2023-03-01T09:10:45;7.70;72.50
38592;DHT22;24356;48.460;11.450;2023-03-01T09:13:11;7.90;72.00
38592;DHT22;24356;48.460;11.450;2023-03-01T09:15:37;8.00;71.30
38592;DHT22;24356;48.460;11.450;2023-03-01T09:18:03;8.20;71.70
38592;DHT22;24356;48.460;11.450;2023-03-01T09:20:31;8.30;71.50
38592;DHT22;24356;48.460;11.450;2023-03-01T09:22:57;8.40;72.00
38592;DHT22;24356;48.460;11.450;2023-03-01T09:25:23;8.50;71.50
38592;DHT22;24356;48.460;11.450;2023-03-01T09:27:51;8.70;71.60
38592;DHT22;24356;48.460;11.450;2023-03-01T09:30:17;8.80;71.60
38592;DHT22;24356;48.460;11.450;2023-03-01T09:32:43;8.90;71.10
38592;DHT22;24356;48.460;11.450;2023-03-01T09:35:10;9.00;71.60
38592;DHT22;24356;48.460;11.450;2023-03-01T09:37:36;9.20;71.50
38592;DHT22;24356;48.460;11.450;2023-03-01T09:40:03;9.30;72.20
38592;DHT22;24356;48.460;11.450;2023-03-01T09:42:32;9.40;71.10
38592;DHT22;24356;48.460;11.450;2023-03-01T09:45:10;9.40;71.10
38592;DHT22;24356;48.460;11.450;2023-03-01T09:47:37;9.50;71.70
38592;DHT22;24356;48.460;11.450;2023-03-01T09:50:13;9.70;70.70
38592;DHT22;24356;48.460;11.450;2023-03-01T09:52:43;9.70;71.40
38592;DHT22;24356;48.460;11.450;2023-03-01T09:55:17;9.80;71.20
38592;DHT22;24356;48.460;11.450;2023-03-01T09:57:55;9.90;71.30
38592;DHT22;24356;48.460;11.450;2023-03-01T10:00:43;10.00;71.30
38592;DHT22;24356;48.460;11.450;2023-03-01T10:03:55;10.10;71.50
38592;DHT22;24356;48.460;11.450;2023-03-01T10:06:19;10.20;71.40
38592;DHT22;24356;48.460;11.450;2023-03-01T10:09:13;10.30;71.40
38592;DHT22;24356;48.460;11.450;2023-03-01T10:11:42;10.40;71.20
38592;DHT22;24356;48.460;11.450;2023-03-01T10:17:25;10.60;70.90
38592;DHT22;24356;48.460;11.450;2023-03-01T10:19:52;10.60;70.30
38592;DHT22;24356;48.460;11.450;2023-03-01T10:22:21;10.60;69.80
38592;DHT22;24356;48.460;11.450;2023-03-01T10:24:49;10.70;70.30
38592;DHT22;24356;48.460;11.450;2023-03-01T10:27:26;10.70;70.00
38592;DHT22;24356;48.460;11.450;2023-03-01T10:30:16;10.70;71.10
38592;DHT22;24356;48.460;11.450;2023-03-01T10:32:43;10.70;69.80
38592;DHT22;24356;48.460;11.450;2023-03-01T10:35:22;10.70;69.50
38592;DHT22;24356;48.460;11.450;2023-03-01T10:38:12;10.70;70.00
38592;DHT22;24356;48.460;11.450;2023-03-01T10:40:59;10.70;70.30
38592;DHT22;24356;48.460;11.450;2023-03-01T10:43:31;10.70;70.50
38592;DHT22;24356;48.460;11.450;2023-03-01T10:45:57;10.70;71.00
38592;DHT22;24356;48.460;11.450;2023-03-01T10:48:26;10.80;71.00
38592;DHT22;24356;48.460;11.450;2023-03-01T10:53:41;10.80;69.90
38592;DHT22;24356;48.460;11.450;2023-03-01T10:56:10;10.80;70.50
38592;DHT22;24356;48.460;11.450;2023-03-01T10:58:40;10.80;70.10
38592;DHT22;24356;48.460;11.450;2023-03-01T11:01:25;10.90;70.30
38592;DHT22;24356;48.460;11.450;2023-03-01T11:04:12;10.90;70.60
38592;DHT22;24356;48.460;11.450;2023-03-01T11:06:39;11.00;70.50
38592;DHT22;24356;48.460;11.450;2023-03-01T11:09:22;10.90;69.90
38592;DHT22;24356;48.460;11.450;2023-03-01T11:11:53;11.00;70.30
38592;DHT22;24356;48.460;11.450;2023-03-01T11:14:33;11.10;70.10
38592;DHT22;24356;48.460;11.450;2023-03-01T11:17:50;11.20;69.00
38592;DHT22;24356;48.460;11.450;2023-03-01T11:22:49;11.20;69.80
38592;DHT22;24356;48.460;11.450;2023-03-01T11:25:15;11.20;69.80
38592;DHT22;24356;48.460;11.450;2023-03-01T11:27:44;11.20;69.70
38592;DHT22;24356;48.460;11.450;2023-03-01T11:30:27;11.20;70.30
38592;DHT22;24356;48.460;11.450;2023-03-01T11:35:22;11.20;71.30
38592;DHT22;24356;48.460;11.450;2023-03-01T11:40:39;11.10;69.60
38592;DHT22;24356;48.460;11.450;2023-03-01T11:48:45;11.10;70.80
38592;DHT22;24356;48.460;11.450;2023-03-01T11:51:41;11.10;71.30
38592;DHT22;24356;48.460;11.450;2023-03-01T12:05:55;11.10;71.40
38592;DHT22;24356;48.460;11.450;2023-03-01T12:11:22;11.10;72.00
38592;DHT22;24356;48.460;11.450;2023-03-01T12:22:01;11.00;70.60
38592;DHT22;24356;48.460;11.450;2023-03-01T12:32:32;10.90;71.60
38592;DHT22;24356;48.460;11.450;2023-03-01T12:40:49;10.80;71.50
38592;DHT22;24356;48.460;11.450;2023-03-01T12:46:23;10.70;70.90
38592;DHT22;24356;48.460;11.450;2023-03-01T12:51:37;10.80;71.50
38592;DHT22;24356;48.460;11.450;2023-03-01T12:54:16;10.80;71.60
38592;DHT22;24356;48.460;11.450;2023-03-01T12:56:46;10.80;71.20
38592;DHT22;24356;48.460;11.450;2023-03-01T12:59:26;10.80;71.40
38592;DHT22;24356;48.460;11.450;2023-03-01T13:02:20;10.90;71.60
38592;DHT22;24356;48.460;11.450;2023-03-01T13:07:36;11.00;72.60
38592;DHT22;24356;48.460;11.450;2023-03-01T13:10:42;11.00;73.20
38592;DHT22;24356;48.460;11.450;2023-03-01T13:15:37;11.20;74.50
38592;DHT22;24356;48.460;11.450;2023-03-01T13:39:26;11.70;75.30
38592;DHT22;24356;48.460;11.450;2023-03-01T13:41:54;11.70;73.90
38592;DHT22;24356;48.460;11.450;2023-03-01T13:49:52;11.90;74.30
38592;DHT22;24356;48.460;11.450;2023-03-01T13:55:19;12.00;76.60
38592;DHT22;24356;48.460;11.450;2023-03-01T13:57:57;12.10;76.60
38592;DHT22;24356;48.460;11.450;2023-03-01T14:00:38;12.10;75.40
38592;DHT22;24356;48.460;11.450;2023-03-01T14:05:36;12.30;77.20
38592;DHT22;24356;48.460;11.450;2023-03-01T14:08:19;12.20;76.30
38592;DHT22;24356;48.460;11.450;2023-03-01T14:13:30;12.30;75.40
38592;DHT22;24356;48.460;11.450;2023-03-01T14:19:15;12.30;78.30
38592;DHT22;24356;48.460;11.450;2023-03-01T14:21:46;12.30;78.80
38592;DHT22;24356;48.460;11.450;2023-03-01T14:24:20;12.40;76.30
38592;DHT22;24356;48.460;11.450;2023-03-01T14:26:46;12.30;77.20
38592;DHT22;24356;48.460;11.450;2023-03-01T14:29:35;12.30;75.70
38592;DHT22;24356;48.460;11.450;2023-03-01T14:34:46;12.30;74.80
38592;DHT22;24356;48.460;11.450;2023-03-01T14:37:33;12.30;74.70
38592;DHT22;24356;48.460;11.450;2023-03-01T14:40:03;12.30;73.10
38592;DHT22;24356;48.460;11.450;2023-03-01T14:42:35;12.30;74.90
38592;DHT22;24356;48.460;11.450;2023-03-01T14:45:01;12.30;75.20
38592;DHT22;24356;48.460;11.450;2023-03-01T14:47:32;12.30;71.40
38592;DHT22;24356;48.460;11.450;2023-03-01T14:53:05;12.30;70.00
38592;DHT22;24356;48.460;11.450;2023-03-01T14:55:42;12.40;69.10
38592;DHT22;24356;48.460;11.450;2023-03-01T14:58:13;12.30;68.30
38592;DHT22;24356;48.460;11.450;2023-03-01T15:00:47;12.30;68.00
38592;DHT22;24356;48.460;11.450;2023-03-01T15:03:36;12.30;67.40
38592;DHT22;24356;48.460;11.450;2023-03-01T15:06:05;12.20;67.00
38592;DHT22;24356;48.460;11.450;2023-03-01T15:08:31;12.10;67.20
38592;DHT22;24356;48.460;11.450;2023-03-01T15:13:45;11.10;63.40
38592;DHT22;24356;48.460;11.450;2023-03-01T15:16:15;10.40;63.90
38592;DHT22;24356;48.460;11.450;2023-03-01T15:18:46;10.00;63.80
38592;DHT22;24356;48.460;11.450;2023-03-01T15:21:29;9.80;64.40
38592;DHT22;24356;48.460;11.450;2023-03-01T15:23:57;9.60;65.10
38592;DHT22;24356;48.460;11.450;2023-03-01T15:26:29;9.40;65.00
38592;DHT22;24356;48.460;11.450;2023-03-01T15:28:58;9.30;65.80
38592;DHT22;24356;48.460;11.450;2023-03-01T15:31:32;9.10;67.10
38592;DHT22;24356;48.460;11.450;2023-03-01T15:36:46;9.60;68.20
38592;DHT22;24356;48.460;11.450;2023-03-01T15:41:56;9.80;67.60
38592;DHT22;24356;48.460;11.450;2023-03-01T15:44:31;9.80;67.60
38592;DHT22;24356;48.460;11.450;2023-03-01T15:46:57;9.80;68.10
38592;DHT22;24356;48.460;11.450;2023-03-01T15:51:57;9.70;68.80
38592;DHT22;24356;48.460;11.450;2023-03-01T15:54:25;9.60;68.90
38592;DHT22;24356;48.460;11.450;2023-03-01T15:56:51;9.50;69.70
38592;DHT22;24356;48.460;11.450;2023-03-01T15:59:17;9.40;69.50
38592;DHT22;24356;48.460;11.450;2023-03-01T16:01:44;9.30;70.00
38592;DHT22;24356;48.460;11.450;2023-03-01T16:04:11;9.20;70.50
38592;DHT22;24356;48.460;11.450;2023-03-01T16:06:53;9.00;70.80
38592;DHT22;24356;48.460;11.450;2023-03-01T16:09:25;8.90;71.00
38592;DHT22;24356;48.460;11.450;2023-03-01T16:11:52;8.80;71.00
38592;DHT22;24356;48.460;11.450;2023-03-01T16:14:18;8.70;71.20
38592;DHT22;24356;48.460;11.450;2023-03-01T16:16:44;8.50;71.40
38592;DHT22;24356;48.460;11.450;2023-03-01T16:19:10;8.40;71.80
38592;DHT22;24356;48.460;11.450;2023-03-01T16:21:36;8.30;71.90
38592;DHT22;24356;48.460;11.450;2023-03-01T16:24:02;8.20;72.30
38592;DHT22;24356;48.460;11.450;2023-03-01T16:26:28;8.10;72.50
38592;DHT22;24356;48.460;11.450;2023-03-01T16:28:57;8.00;72.90
38592;DHT22;24356;48.460;11.450;2023-03-01T16:31:23;7.90;73.10
38592;DHT22;24356;48.460;11.450;2023-03-01T16:33:53;7.70;73.40
38592;DHT22;24356;48.460;11.450;2023-03-01T16:36:20;7.60;73.70
38592;DHT22;24356;48.460;11.450;2023-03-01T16:38:46;7.50;74.10
38592;DHT22;24356;48.460;11.450;2023-03-01T16:41:14;7.40;74.40
38592;DHT22;24356;48.460;11.450;2023-03-01T16:43:40;7.30;74.50
38592;DHT22;24356;48.460;11.450;2023-03-01T16:46:14;7.20;74.60
38592;DHT22;24356;48.460;11.450;2023-03-01T16:48:41;7.10;74.90
38592;DHT22;24356;48.460;11.450;2023-03-01T16:51:07;6.90;75.00
38592;DHT22;24356;48.460;11.450;2023-03-01T16:53:33;6.90;75.10
38592;DHT22;24356;48.460;11.450;2023-03-01T16:56:02;6.80;75.20
38592;DHT22;24356;48.460;11.450;2023-03-01T16:58:28;6.70;75.60
38592;DHT22;24356;48.460;11.450;2023-03-01T17:00:54;6.50;75.70
38592;DHT22;24356;48.460;11.450;2023-03-01T17:03:21;6.40;75.80
38592;DHT22;24356;48.460;11.450;2023-03-01T17:05:47;6.30;75.70
38592;DHT22;24356;48.460;11.450;2023-03-01T17:08:13;6.20;75.90
38592;DHT22;24356;48.460;11.450;2023-03-01T17:10:38;6.10;76.10
38592;DHT22;24356;48.460;11.450;2023-03-01T17:13:04;6.00;76.00
38592;DHT22;24356;48.460;11.450;2023-03-01T17:15:29;6.00;76.00
38592;DHT22;24356;48.460;11.450;2023-03-01T17:17:55;5.90;76.10
38592;DHT22;24356;48.460;11.450;2023-03-01T17:20:21;5.80;76.60
38592;DHT22;24356;48.460;11.450;2023-03-01T17:22:46;5.70;76.40
38592;DHT22;24356;48.460;11.450;2023-03-01T17:25:12;5.60;76.90
38592;DHT22;24356;48.460;11.450;2023-03-01T17:27:38;5.50;76.80
38592;DHT22;24356;48.460;11.450;2023-03-01T17:30:06;5.40;77.10
38592;DHT22;24356;48.460;11.450;2023-03-01T17:32:32;5.30;77.30
38592;DHT22;24356;48.460;11.450;2023-03-01T17:34:57;5.20;77.50
38592;DHT22;24356;48.460;11.450;2023-03-01T17:37:23;5.10;77.90
38592;DHT22;24356;48.460;11.450;2023-03-01T17:39:49;5.00;77.90
38592;DHT22;24356;48.460;11.450;2023-03-01T17:42:14;4.90;77.80
38592;DHT22;24356;48.460;11.450;2023-03-01T17:44:40;4.80;77.60
38592;DHT22;24356;48.460;11.450;2023-03-01T17:47:06;4.70;78.00
38592;DHT22;24356;48.460;11.450;2023-03-01T17:49:32;4.60;78.20